Time;durP1;ratioP1;P1;durP2;ratioP2;P2;SDS_P1;SDS_P2;PMS_P1;PMS_P2;Temp;Humidity;BMP_temperature;BMP_pressure;BME280_temperature;BME280_humidity;BME280_pressure;Samples;Min_cycle;Max_cycle;Signal;HPM_P1;HPM_P2
2023/09/12 00:01:21;;;;;;;;;;;;;;;;;;;;;
2023/09/12 00:03:51;;;;;;;2.03;0.40;;;;;;;26.12;46.91;101023.66;5006064;28;20065;-80
2023/09/12 00:06:20;;;;;;;1.85;0.50;;;;;;;26.03;47.24;101021.31;5002246;28;20108;-83
2023/09/12 00:08:49;;;;;;;1.23;0.40;;;;;;;26.02;49.15;101021.34;5006691;28;20049;-83
2023/09/12 00:11:20;;;;;;;1.98;0.32;;;;;;;25.96;48.70;101019.75;5006574;28;20137;-85
2023/09/12 00:13:48;;;;;;;0.70;0.50;;;;;;;25.89;49.12;101021.72;5007747;28;20687;-82
2023/09/12 00:16:32;;;;;;;6.10;0.70;;;;;;;25.80;47.76;101023.75;5009426;28;20050;-84
2023/09/12 00:19:02;;;;;;;2.35;0.40;;;;;;;25.70;48.11;101012.53;5006877;28;20061;-81
2023/09/12 00:21:31;;;;;;;1.08;0.50;;;;;;;25.64;48.17;101018.88;5004441;28;20523;-81
2023/09/12 00:24:00;;;;;;;2.88;0.50;;;;;;;25.58;48.51;101016.41;4991484;28;20467;-82
2023/09/12 00:26:30;;;;;;;0.52;0.38;;;;;;;25.55;49.08;101013.84;5006965;28;20106;-83
2023/09/12 00:28:59;;;;;;;3.65;0.40;;;;;;;25.56;50.17;101020.88;5005419;28;20054;-81
2023/09/12 00:31:27;;;;;;;0.55;0.30;;;;;;;25.49;49.14;101016.66;5010733;28;20049;-82
2023/09/12 00:33:56;;;;;;;2.17;0.40;;;;;;;25.43;50.18;101015.06;5002300;28;20058;-82
2023/09/12 00:36:26;;;;;;;1.30;0.38;;;;;;;25.40;50.78;101008.97;5004776;28;20109;-81
2023/09/12 00:38:57;;;;;;;2.45;0.50;;;;;;;25.36;50.80;101018.81;5008017;28;20042;-81
2023/09/12 00:41:25;;;;;;;4.50;0.75;;;;;;;25.31;50.75;101017.19;5008763;28;20056;-79
2023/09/12 00:43:54;;;;;;;1.73;0.50;;;;;;;25.27;52.06;101019.06;4999213;28;20050;-81
2023/09/12 00:46:25;;;;;;;2.20;0.60;;;;;;;25.19;52.46;101016.59;5000208;28;20051;-82
2023/09/12 00:48:55;;;;;;;0.70;0.57;;;;;;;25.10;51.15;101016.81;5010054;28;20057;-81
2023/09/12 00:51:29;;;;;;;1.48;0.50;;;;;;;25.03;51.44;101010.81;5024905;28;20419;-83
2023/09/12 00:53:58;;;;;;;3.55;0.60;;;;;;;24.95;51.75;101018.09;5033497;28;20070;-82
2023/09/12 00:56:27;;;;;;;1.33;0.50;;;;;;;24.83;52.27;101016.66;5029763;28;20022;-83
2023/09/12 00:58:56;;;;;;;1.33;0.60;;;;;;;24.80;52.19;101024.66;5017843;28;20054;-82
2023/09/12 01:01:38;;;;;;;3.13;0.63;;;;;;;24.76;51.80;101017.72;5006405;28;20057;-81
2023/09/12 01:04:06;;;;;;;;;;;;;;;24.72;51.70;101018.69;5005521;28;20046;-81
2023/09/12 01:06:37;;;;;;;3.47;0.60;;;;;;;24.67;51.37;101012.66;5006066;28;19960;-80
2023/09/12 01:09:11;;;;;;;1.40;0.60;;;;;;;24.59;51.59;101011.97;5009164;28;20142;-81
2023/09/12 01:11:40;;;;;;;0.98;0.55;;;;;;;24.50;52.06;101010.41;5010041;28;20479;-81
2023/09/12 01:14:10;;;;;;;2.97;0.52;;;;;;;24.43;52.24;101007.00;5007659;28;20045;-82
2023/09/12 01:16:48;;;;;;;5.70;0.90;;;;;;;24.39;52.85;101007.97;5007969;28;20113;-82
2023/09/12 01:19:19;;;;;;;2.40;0.80;;;;;;;24.35;53.32;101006.34;5011950;28;20069;-82
2023/09/12 01:22:17;;;;;;;4.97;0.90;;;;;;;24.33;53.63;101007.28;5006451;28;20061;-80
2023/09/12 01:25:14;;;;;;;3.40;0.60;;;;;;;24.34;54.25;101011.66;4995777;28;20465;-78
2023/09/12 01:27:48;;;;;;;1.02;0.40;;;;;;;24.35;53.90;101006.34;4977301;28;20050;-79
2023/09/12 01:30:20;;;;;;;2.17;0.60;;;;;;;24.35;53.72;101010.72;4998319;28;20073;-80
2023/09/12 01:32:52;;;;;;;1.00;0.60;;;;;;;24.32;53.86;101011.66;5002217;28;20528;-79
2023/09/12 01:35:21;;;;;;;0.60;0.47;;;;;;;24.30;53.69;101012.63;5005178;28;20092;-78
2023/09/12 01:37:49;;;;;;;0.70;0.40;;;;;;;24.24;54.21;101013.66;5007678;28;20053;-79
2023/09/12 01:40:18;;;;;;;1.75;0.50;;;;;;;24.15;54.73;101004.16;5003432;28;20084;-77
2023/09/12 01:42:50;;;;;;;1.63;0.70;;;;;;;24.06;54.18;101008.78;5000213;28;20042;-78
2023/09/12 01:45:20;;;;;;;1.00;0.45;;;;;;;23.98;54.54;101015.09;5005622;28;20296;-77
2023/09/12 01:47:51;;;;;;;2.67;0.52;;;;;;;23.91;54.68;101009.97;5010844;28;20054;-78
2023/09/12 01:50:22;;;;;;;0.82;0.50;;;;;;;23.86;54.94;101018.00;5000050;28;20081;-77
2023/09/12 01:52:54;;;;;;;2.15;0.47;;;;;;;23.80;55.36;101013.72;5002724;28;20054;-77
2023/09/12 01:55:24;;;;;;;1.00;0.47;;;;;;;23.74;55.59;101016.50;5009354;28;20053;-76
2023/09/12 01:57:55;;;;;;;0.30;0.20;;;;;;;23.71;55.52;101013.00;5004004;28;20057;-76
2023/09/12 02:00:26;;;;;;;0.43;0.40;;;;;;;23.66;55.37;101014.88;5006638;28;20081;-78
2023/09/12 02:02:55;;;;;;;1.17;0.32;;;;;;;23.58;55.45;101013.25;5008521;28;20061;-78
2023/09/12 02:05:24;;;;;;;2.65;0.40;;;;;;;23.54;55.60;101019.50;5014449;28;20048;-77
2023/09/12 02:07:53;;;;;;;0.73;0.30;;;;;;;23.48;55.94;101014.34;5008579;28;20045;-78
2023/09/12 02:10:21;;;;;;;2.45;0.47;;;;;;;23.47;55.69;101023.16;5009904;28;20058;-78
2023/09/12 02:12:50;;;;;;;0.43;0.40;;;;;;;23.42;55.69;101022.38;5003313;28;20507;-78
2023/09/12 02:15:20;;;;;;;1.08;0.30;;;;;;;23.37;56.03;101026.91;5005824;28;20067;-77
2023/09/12 02:17:50;;;;;;;0.40;0.22;;;;;;;23.33;56.32;101026.06;4996677;28;20041;-77
2023/09/12 02:20:19;;;;;;;2.17;0.30;;;;;;;23.32;56.20;101021.72;5002899;28;20054;-77
2023/09/12 02:22:47;;;;;;;1.40;0.45;;;;;;;23.31;56.36;101019.94;5004472;28;20065;-76
2023/09/12 02:25:23;;;;;;;0.50;0.40;;;;;;;23.28;56.49;101025.28;5003076;28;20077;-78
2023/09/12 02:27:52;;;;;;;0.32;0.28;;;;;;;23.26;56.64;101023.59;5003254;28;20050;-79
2023/09/12 02:30:22;;;;;;;0.85;0.45;;;;;;;23.23;56.76;101026.25;5008392;28;20050;-77
2023/09/12 02:32:50;;;;;;;1.20;0.40;;;;;;;23.18;56.28;101021.06;5008363;28;20077;-78
2023/09/12 02:35:19;;;;;;;3.30;0.32;;;;;;;23.15;56.44;101019.38;5003255;28;20046;-78
2023/09/12 02:37:48;;;;;;;0.75;0.30;;;;;;;23.07;56.48;101020.44;5011909;28;20053;-76
2023/09/12 02:40:18;;;;;;;1.35;0.50;;;;;;;23.05;56.58;101016.94;5006437;28;20074;-76
2023/09/12 02:42:46;;;;;;;0.45;0.40;;;;;;;23.05;56.15;101025.72;4999318;28;20113;-75
2023/09/12 02:45:15;;;;;;;0.40;0.40;;;;;;;23.00;56.27;101035.50;5010321;28;20058;-78
2023/09/12 02:47:52;;;;;;;0.98;0.50;;;;;;;22.97;56.76;101035.50;4998479;28;20046;-76
2023/09/12 02:50:21;;;;;;;4.75;0.80;;;;;;;22.93;56.92;101033.78;5003569;28;20129;-77
2023/09/12 02:52:50;;;;;;;1.08;0.50;;;;;;;22.91;57.01;101036.50;5014822;28;20484;-77
2023/09/12 02:55:18;;;;;;;1.77;0.40;;;;;;;22.89;56.90;101035.63;5013379;28;20141;-78
2023/09/12 02:57:49;;;;;;;1.00;0.60;;;;;;;22.84;57.00;101037.50;5010810;28;20088;-76
2023/09/12 03:00:19;;;;;;;1.95;0.50;;;;;;;22.77;55.93;101049.91;5010472;28;20097;-77
2023/09/12 03:02:50;;;;;;;1.58;0.55;;;;;;;22.72;55.52;101043.84;5000943;28;20609;-79
2023/09/12 03:05:18;;;;;;;0.82;0.57;;;;;;;22.70;54.72;101050.91;5018336;28;20060;-78
2023/09/12 03:07:47;;;;;;;3.20;0.60;;;;;;;22.57;54.81;101041.44;5005603;28;20050;-77
2023/09/12 03:10:16;;;;;;;1.92;0.40;;;;;;;22.63;53.91;101062.44;5006269;28;20049;-78
2023/09/12 03:12:44;;;;;;;1.90;0.60;;;;;;;22.62;54.02;101067.75;5007787;28;20069;-79
2023/09/12 03:15:13;;;;;;;2.65;0.60;;;;;;;22.59;53.86;101072.16;5009685;28;20050;-78
2023/09/12 03:17:42;;;;;;;1.88;0.80;;;;;;;22.52;52.99;101074.94;4999620;28;20042;-76
2023/09/12 03:20:15;;;;;;;2.25;0.52;;;;;;;22.47;52.67;101076.75;5000000;28;20142;-72
2023/09/12 03:22:45;;;;;;;1.23;0.40;;;;;;;22.41;52.84;101084.75;4995476;28;20049;-75
2023/09/12 03:25:13;;;;;;;2.05;0.60;;;;;;;22.34;52.46;101078.69;5006845;28;20038;-72
2023/09/12 03:27:42;;;;;;;2.15;0.80;;;;;;;22.32;52.75;101078.72;5003391;28;20048;-76
2023/09/12 03:30:11;;;;;;;2.92;0.68;;;;;;;22.31;53.37;101086.63;5005676;28;20038;-76
2023/09/12 03:32:40;;;;;;;1.52;0.60;;;;;;;22.29;53.55;101084.03;5002887;28;20484;-75
2023/09/12 03:35:11;;;;;;;2.40;1.08;;;;;;;22.22;53.39;101079.75;4999211;28;20101;-75
2023/09/12 03:37:42;;;;;;;3.28;0.90;;;;;;;22.17;53.19;101079.78;5004983;28;20141;-75
2023/09/12 03:40:12;;;;;;;4.00;0.70;;;;;;;22.13;54.03;101077.19;4996478;28;20050;-75
2023/09/12 03:42:44;;;;;;;4.72;0.73;;;;;;;22.09;53.91;101086.03;5004246;28;20050;-76
2023/09/12 03:45:14;;;;;;;5.78;1.48;;;;;;;22.06;54.95;101086.03;4997736;28;20047;-72
2023/09/12 03:47:46;;;;;;;1.95;0.77;;;;;;;22.02;55.29;101082.59;5004384;28;20038;-76
2023/09/12 03:50:22;;;;;;;4.85;0.93;;;;;;;22.04;56.88;101087.84;5006351;28;20135;-76
2023/09/12 03:52:51;;;;;;;2.10;0.80;;;;;;;22.05;56.33;101092.22;5018693;28;20054;-75
2023/09/12 03:55:20;;;;;;;1.77;0.80;;;;;;;22.04;55.52;101095.75;5010687;28;20053;-78
2023/09/12 03:57:48;;;;;;;2.95;0.95;;;;;;;22.02;55.82;101100.19;4997895;28;20069;-77
2023/09/12 04:00:23;;;;;;;1.77;0.75;;;;;;;22.04;56.52;101107.16;5013958;28;20433;-77
2023/09/12 04:02:52;;;;;;;4.65;1.00;;;;;;;22.04;56.36;101101.03;4995731;28;20117;-77
2023/09/12 04:05:22;;;;;;;1.55;0.70;;;;;;;22.03;56.28;101109.81;5004542;28;20046;-73
2023/09/12 04:07:51;;;;;;;3.50;0.80;;;;;;;21.99;55.53;101109.00;5001951;28;20058;-76
2023/09/12 04:10:27;;;;;;;2.80;0.80;;;;;;;21.99;55.40;101110.72;5005088;28;20050;-77
2023/09/12 04:12:55;;;;;;;1.85;0.90;;;;;;;22.01;54.92;101122.13;4997299;28;20583;-78
2023/09/12 04:15:24;;;;;;;1.52;0.70;;;;;;;21.96;55.52;101123.03;4996320;28;20050;-76
2023/09/12 04:17:53;;;;;;;4.55;1.15;;;;;;;21.88;55.19;101119.66;5002854;28;20463;-77
2023/09/12 04:20:32;;;;;;;2.08;0.82;;;;;;;21.83;55.06;101121.47;4997706;28;20671;-77
2023/09/12 04:23:04;;;;;;;2.05;0.70;;;;;;;21.81;55.28;101117.97;4999521;28;20409;-76
2023/09/12 04:25:33;;;;;;;3.27;1.03;;;;;;;21.77;55.50;101116.25;5008278;28;20506;-76
2023/09/12 04:28:02;;;;;;;2.58;0.70;;;;;;;21.73;55.81;101120.66;5003578;28;20418;-77
2023/09/12 04:30:33;;;;;;;2.38;0.98;;;;;;;21.67;55.69;101120.75;5003402;28;20046;-77
2023/09/12 04:33:02;;;;;;;2.35;0.73;;;;;;;21.62;56.46;101126.94;5002898;28;20056;-77
2023/09/12 04:35:35;;;;;;;4.82;1.10;;;;;;;21.54;56.38;101125.28;5007716;28;20547;-76
2023/09/12 04:38:09;;;;;;;2.65;0.73;;;;;;;21.48;57.76;101124.44;4995660;28;20495;-76
2023/09/12 04:40:39;;;;;;;4.65;1.65;;;;;;;21.41;56.98;101128.03;5002403;28;20502;-77
2023/09/12 04:43:08;;;;;;;2.75;0.90;;;;;;;21.32;57.54;101121.06;5007733;28;20045;-75
2023/09/12 04:45:36;;;;;;;3.53;1.02;;;;;;;21.26;57.01;101119.38;4998096;28;20046;-77
2023/09/12 04:48:07;;;;;;;5.32;1.00;;;;;;;21.14;57.15;101129.97;5006296;28;20045;-77
2023/09/12 04:50:45;;;;;;;1.88;0.80;;;;;;;21.09;57.05;101132.66;5004336;28;20092;-76
2023/09/12 04:53:14;;;;;;;3.35;0.85;;;;;;;21.00;56.94;101130.09;5009943;28;20049;-76
2023/09/12 04:55:43;;;;;;;3.72;0.98;;;;;;;20.92;57.30;101134.56;5011290;28;20061;-77
2023/09/12 04:58:12;;;;;;;2.35;0.90;;;;;;;20.88;57.50;101132.81;5004945;28;20081;-77
2023/09/12 05:00:41;;;;;;;2.72;0.90;;;;;;;20.81;57.15;101133.75;4999549;28;20666;-77
2023/09/12 05:03:10;;;;;;;5.20;0.90;;;;;;;20.75;57.67;101137.28;5005358;28;20042;-78
2023/09/12 05:05:40;;;;;;;3.20;1.00;;;;;;;20.70;58.62;101131.19;5004824;28;20045;-79
2023/09/12 05:08:09;;;;;;;3.38;1.27;;;;;;;20.62;58.78;101135.63;5004161;28;20630;-78
2023/09/12 05:10:40;;;;;;;4.15;0.90;;;;;;;20.58;58.71;101139.16;5006532;28;20137;-79
2023/09/12 05:13:09;;;;;;;2.50;1.00;;;;;;;20.53;58.55;101144.41;5004744;28;20054;-77
2023/09/12 05:15:39;;;;;;;2.60;1.10;;;;;;;20.49;59.67;101150.56;5005597;28;20115;-78
2023/09/12 05:18:08;;;;;;;4.00;0.75;;;;;;;20.45;59.98;101154.94;4998540;28;20570;-78
2023/09/12 05:20:38;;;;;;;3.33;0.93;;;;;;;20.42;60.94;101143.59;4998741;28;20049;-78
2023/09/12 05:23:08;;;;;;;5.30;1.17;;;;;;;20.37;61.83;101143.59;4995548;28;20050;-78
2023/09/12 05:25:37;;;;;;;4.78;1.30;;;;;;;20.32;61.22;101139.22;5010461;28;20758;-76
2023/09/12 05:28:06;;;;;;;3.47;1.20;;;;;;;20.26;61.75;101148.03;5008843;28;20443;-78
2023/09/12 05:30:35;;;;;;;5.47;1.20;;;;;;;20.18;61.81;101150.69;5009035;28;20045;-78
2023/09/12 05:33:06;;;;;;;2.38;1.08;;;;;;;20.09;62.05;101134.97;5007849;28;20519;-77
2023/09/12 05:35:34;;;;;;;3.05;1.00;;;;;;;20.07;62.23;101140.22;5012717;28;20042;-80
2023/09/12 05:38:03;;;;;;;3.95;0.95;;;;;;;20.09;64.92;101146.34;5002450;28;20504;-78
2023/09/12 05:40:33;;;;;;;3.50;0.90;;;;;;;20.10;63.45;101147.22;5012521;28;20065;-77
2023/09/12 05:43:05;;;;;;;3.92;1.08;;;;;;;20.10;63.48;101155.09;5001073;28;20057;-77
2023/09/12 05:45:33;;;;;;;6.20;1.13;;;;;;;20.11;64.12;101159.47;5003683;28;20050;-77
2023/09/12 05:48:03;;;;;;;5.18;1.25;;;;;;;20.10;65.56;101162.97;5004302;28;20046;-77
2023/09/12 05:50:31;;;;;;;3.67;1.08;;;;;;;20.04;64.05;101152.47;5009145;28;20069;-77
2023/09/12 05:53:00;;;;;;;3.17;0.80;;;;;;;20.07;63.18;101163.00;5017648;28;20402;-79
2023/09/12 05:55:34;;;;;;;1.65;0.60;;;;;;;20.05;63.93;101160.38;5003861;28;20054;-78
2023/09/12 05:58:05;;;;;;;5.68;1.08;;;;;;;20.02;64.19;101159.50;5004419;28;20050;-76
2023/09/12 06:00:34;;;;;;;2.50;0.70;;;;;;;20.02;64.48;101159.50;5005136;28;20050;-76
2023/09/12 06:03:03;;;;;;;2.15;0.75;;;;;;;19.93;65.19;101164.75;5004401;28;20455;-75
2023/09/12 06:05:36;;;;;;;4.05;0.80;;;;;;;19.79;66.03;101162.19;4998537;28;20432;-78
2023/09/12 06:08:08;;;;;;;2.47;1.00;;;;;;;19.66;66.47;101166.56;5008821;28;20984;-75
2023/09/12 06:10:36;;;;;;;;;;;;;;;19.58;66.52;101174.41;5000714;28;20076;-76
2023/09/12 06:13:07;;;;;;;4.30;1.08;;;;;;;19.51;66.79;101174.44;5006257;28;20603;-76
2023/09/12 06:15:38;;;;;;;2.88;0.82;;;;;;;19.38;66.55;101171.84;5011934;28;20545;-77
2023/09/12 06:18:07;;;;;;;2.50;0.85;;;;;;;19.26;66.77;101177.06;5016276;28;20117;-78
2023/09/12 06:20:36;;;;;;;3.78;1.00;;;;;;;19.21;67.02;101176.19;5014532;28;20038;-78
2023/09/12 06:23:05;;;;;;;5.72;0.70;;;;;;;19.16;68.19;101181.44;5016055;28;20057;-76
2023/09/12 06:25:39;;;;;;;1.60;0.60;;;;;;;19.08;67.76;101177.94;5014751;28;20089;-78
2023/09/12 06:28:11;;;;;;;4.53;0.75;;;;;;;19.02;67.83;101181.41;5017271;28;20531;-77
2023/09/12 06:30:40;;;;;;;3.22;1.10;;;;;;;19.00;68.39;101188.41;5009202;28;20125;-76
2023/09/12 06:33:08;;;;;;;3.58;0.90;;;;;;;19.00;68.50;101180.53;5003669;28;20105;-77
2023/09/12 06:35:37;;;;;;;0.95;0.50;;;;;;;18.97;68.06;101184.91;5007860;28;20104;-77
2023/09/12 06:38:05;;;;;;;3.33;0.93;;;;;;;18.88;68.07;101175.28;5017911;28;20046;-75
2023/09/12 06:40:34;;;;;;;3.10;0.55;;;;;;;18.83;67.90;101174.41;5019229;28;20061;-77
2023/09/12 06:43:03;;;;;;;2.90;0.82;;;;;;;18.86;68.22;101176.16;5014554;28;20097;-77
2023/09/12 06:45:35;;;;;;;5.32;0.93;;;;;;;18.79;68.93;101172.63;5006663;28;20108;-77
2023/09/12 06:48:07;;;;;;;1.52;0.70;;;;;;;18.74;69.12;101172.59;5006174;28;20185;-76
2023/09/12 06:50:37;;;;;;;1.80;0.70;;;;;;;18.70;69.42;101172.59;5002473;28;20704;-77
2023/09/12 06:53:07;;;;;;;1.48;0.70;;;;;;;18.65;69.73;101179.56;5005148;28;20078;-76
2023/09/12 06:55:36;;;;;;;4.15;0.77;;;;;;;18.58;70.18;101170.81;5006478;28;20100;-77
2023/09/12 06:58:07;;;;;;;2.00;0.82;;;;;;;18.55;69.93;101166.41;5002977;28;20542;-77
2023/09/12 07:00:38;;;;;;;2.45;0.75;;;;;;;18.51;70.63;101176.88;5001972;28;20042;-78
2023/09/12 07:03:06;;;;;;;3.60;0.98;;;;;;;18.45;70.71;101179.50;5005890;28;20074;-74
2023/09/12 07:05:39;;;;;;;3.08;1.05;;;;;;;18.38;70.47;101182.06;5000722;28;20128;-76
2023/09/12 07:08:11;;;;;;;4.20;1.00;;;;;;;18.36;71.12;101180.31;5003562;28;20058;-74
2023/09/12 07:10:45;;;;;;;4.17;1.10;;;;;;;18.31;70.83;101187.28;5001967;28;20392;-76
2023/09/12 07:13:14;;;;;;;0.95;0.60;;;;;;;18.21;70.42;101175.91;5005459;28;20050;-76
2023/09/12 07:15:49;;;;;;;2.72;0.85;;;;;;;18.27;70.29;101191.63;5004458;28;20045;-76
2023/09/12 07:18:18;;;;;;;2.10;0.98;;;;;;;18.28;69.82;101197.72;5000789;28;20632;-78
2023/09/12 07:20:47;;;;;;;2.63;0.73;;;;;;;18.29;69.73;101192.50;5007080;28;20132;-77
2023/09/12 07:23:15;;;;;;;4.82;1.00;;;;;;;18.32;69.09;101191.66;5004975;28;20053;-75
2023/09/12 07:25:44;;;;;;;4.47;0.95;;;;;;;18.32;68.94;101199.50;5009202;28;20049;-77
2023/09/12 07:28:14;;;;;;;4.90;2.20;;;;;;;18.30;68.62;101190.75;5004195;28;20537;-77
2023/09/12 07:30:47;;;;;;;3.40;1.85;;;;;;;18.32;69.18;101204.75;5005625;28;20041;-77
2023/09/12 07:33:15;;;;;;;3.22;0.82;;;;;;;18.29;69.98;101196.88;5005076;28;20042;-75
2023/09/12 07:35:44;;;;;;;2.03;0.85;;;;;;;18.30;69.32;101202.13;5001496;28;20042;-76
2023/09/12 07:38:16;;;;;;;2.88;0.88;;;;;;;18.30;69.52;101201.25;5003581;28;20523;-78
2023/09/12 07:40:45;;;;;;;;;;;;;;;18.30;70.25;101202.13;5003778;28;20134;-77
2023/09/12 07:43:14;;;;;;;1.67;0.70;;;;;;;18.26;69.77;101212.59;5005544;28;20000;-78
2023/09/12 07:45:44;;;;;;;6.07;0.75;;;;;;;18.23;69.88;101204.69;5002742;28;20054;-78
2023/09/12 07:48:17;;;;;;;3.50;0.80;;;;;;;18.11;69.18;101195.91;5011661;28;20053;-76
2023/09/12 07:50:46;;;;;;;4.00;0.85;;;;;;;18.16;69.19;101215.16;5005587;28;20567;-77
2023/09/12 07:53:14;;;;;;;4.20;1.13;;;;;;;18.11;69.42;101206.38;5005907;28;20056;-77
2023/09/12 07:55:46;;;;;;;3.33;0.95;;;;;;;18.04;69.62;101209.84;5005219;28;20105;-76
2023/09/12 07:58:21;;;;;;;5.13;0.83;;;;;;;18.00;70.03;101215.91;5007678;28;20137;-77
2023/09/12 08:00:51;;;;;;;1.70;1.02;;;;;;;17.99;70.02;101211.56;5003716;28;20296;-77
2023/09/12 08:03:20;;;;;;;4.78;0.85;;;;;;;17.94;70.56;101202.81;5006332;28;20054;-76
2023/09/12 08:06:01;;;;;;;1.35;0.80;;;;;;;17.89;71.07;101207.13;5003737;28;20100;-77
2023/09/12 08:08:30;;;;;;;1.40;0.95;;;;;;;17.78;71.81;101215.75;5011531;28;20534;-76
2023/09/12 08:10:59;;;;;;;6.10;1.17;;;;;;;17.69;71.40;101204.34;4994229;28;20054;-77
2023/09/12 08:13:29;;;;;;;4.22;0.93;;;;;;;17.65;72.33;101213.91;5004960;28;20475;-76
2023/09/12 08:16:04;;;;;;;4.00;0.70;;;;;;;17.63;72.08;101215.63;5007199;28;20047;-77
2023/09/12 08:18:33;;;;;;;2.53;1.00;;;;;;;17.61;72.61;101216.47;5005401;28;20050;-77
2023/09/12 08:21:02;;;;;;;5.18;0.90;;;;;;;17.59;72.97;101224.31;5005296;28;20042;-78
2023/09/12 08:23:30;;;;;;;3.92;0.75;;;;;;;17.56;73.17;101221.69;5005723;28;20077;-77
2023/09/12 08:25:59;;;;;;;4.45;0.85;;;;;;;17.53;73.21;101216.44;5008354;28;20046;-78
2023/09/12 08:28:30;;;;;;;2.20;0.60;;;;;;;17.47;73.11;101214.63;5003344;28;20050;-78
2023/09/12 08:31:00;;;;;;;1.73;0.80;;;;;;;17.47;73.86;101211.13;5007209;28;20046;-79
2023/09/12 08:33:29;;;;;;;3.20;1.13;;;;;;;17.44;74.08;101216.34;5004915;28;20046;-77
2023/09/12 08:35:57;;;;;;;3.78;0.95;;;;;;;17.40;73.93;101209.34;5010601;28;20050;-78
2023/09/12 08:38:28;;;;;;;5.65;0.90;;;;;;;17.34;73.85;101204.91;5008661;28;20049;-78
2023/09/12 08:40:57;;;;;;;5.50;0.93;;;;;;;17.32;73.87;101207.53;5002928;28;20048;-76
2023/09/12 08:43:27;;;;;;;5.28;0.88;;;;;;;17.29;74.31;101209.22;5006835;28;20100;-77
2023/09/12 08:45:56;;;;;;;5.20;0.90;;;;;;;17.25;75.58;101200.50;5015877;28;20054;-77
2023/09/12 08:48:31;;;;;;;1.48;0.60;;;;;;;17.23;75.95;101204.84;5007212;28;20064;-76
2023/09/12 08:51:00;;;;;;;0.75;0.52;;;;;;;17.20;76.42;101202.16;5002227;28;20069;-76
2023/09/12 08:53:29;;;;;;;2.35;1.02;;;;;;;17.20;76.82;101196.06;5007124;28;20069;-76
2023/09/12 08:55:57;;;;;;;1.92;0.70;;;;;;;17.18;76.71;101201.31;5003681;28;20057;-76
2023/09/12 08:58:27;;;;;;;3.65;1.05;;;;;;;17.16;76.62;101208.25;5005369;28;20046;-77
2023/09/12 09:00:56;;;;;;;2.28;1.00;;;;;;;17.12;76.93;101203.84;5003579;28;20054;-78
2023/09/12 09:03:27;;;;;;;2.38;0.73;;;;;;;17.09;76.99;101209.06;5012463;28;20129;-75
2023/09/12 09:05:57;;;;;;;2.30;0.80;;;;;;;17.05;77.81;101209.88;5008058;28;20038;-77
2023/09/12 09:08:28;;;;;;;2.22;0.80;;;;;;;16.93;77.96;101192.34;5002567;28;20115;-76
2023/09/12 09:11:02;;;;;;;2.75;0.90;;;;;;;16.99;77.83;101207.19;5008428;28;20434;-77
2023/09/12 09:13:31;;;;;;;5.40;0.90;;;;;;;16.94;78.55;101200.19;5019413;28;20054;-77
2023/09/12 09:16:25;;;;;;;1.23;0.60;;;;;;;16.91;78.59;101194.06;5008070;28;20050;-77
2023/09/12 09:18:57;;;;;;;5.50;0.65;;;;;;;16.89;78.99;101191.41;5012465;28;20069;-77
2023/09/12 09:21:27;;;;;;;3.67;0.88;;;;;;;16.86;79.64;101183.56;5033055;28;20037;-78
2023/09/12 09:23:59;;;;;;;3.85;0.80;;;;;;;16.85;79.44;101191.38;5030609;28;20050;-77
2023/09/12 09:26:41;;;;;;;1.55;0.88;;;;;;;16.74;79.80;101179.06;5020934;28;20080;-77
2023/09/12 09:29:11;;;;;;;7.40;1.80;;;;;;;16.79;79.67;101193.88;5011943;28;20114;-77
2023/09/12 09:31:44;;;;;;;1.05;0.55;;;;;;;16.76;80.47;101198.19;5009216;28;20296;-76
2023/09/12 09:34:18;;;;;;;3.78;0.73;;;;;;;16.75;80.65;101196.47;5012124;28;20038;-76
2023/09/12 09:36:48;;;;;;;4.50;1.13;;;;;;;16.75;81.15;101196.47;5007430;28;20065;-77
2023/09/12 09:39:21;;;;;;;2.85;0.93;;;;;;;16.72;81.92;101192.94;5008769;28;20057;-77
2023/09/12 09:41:50;;;;;;;;;;;;;;;16.69;82.25;101198.13;5012309;28;20042;-78
2023/09/12 09:44:19;;;;;;;2.38;0.85;;;;;;;16.67;82.16;101194.63;5013504;28;20008;-77
2023/09/12 09:46:51;;;;;;;4.65;0.75;;;;;;;16.69;82.86;101198.13;5014260;28;20413;-78
2023/09/12 09:49:25;;;;;;;3.92;0.77;;;;;;;16.69;82.45;101199.00;5013472;28;20038;-78
2023/09/12 09:51:56;;;;;;;6.10;0.95;;;;;;;16.70;82.03;101189.44;5008920;28;21439;-79
2023/09/12 09:54:27;;;;;;;1.67;0.85;;;;;;;16.68;82.17;101196.38;5015587;28;20046;-77
2023/09/12 09:56:57;;;;;;;3.92;0.80;;;;;;;16.66;81.38;101192.88;5006951;28;20113;-75
2023/09/12 09:59:27;;;;;;;5.38;0.80;;;;;;;16.63;82.43;101200.66;5012707;28;20092;-77
2023/09/12 10:01:58;;;;;;;3.85;0.90;;;;;;;16.52;83.07;101201.44;5005901;28;20047;-76
2023/09/12 10:04:29;;;;;;;4.65;1.13;;;;;;;16.44;84.14;101200.44;5013143;28;20057;-77
2023/09/12 10:07:09;;;;;;;5.28;1.00;;;;;;;16.39;84.04;101198.66;5005090;28;20148;-76
2023/09/12 10:09:38;;;;;;;2.53;0.73;;;;;;;16.30;83.54;101194.16;5009223;28;20491;-76
2023/09/12 10:12:07;;;;;;;5.82;1.15;;;;;;;16.37;84.14;101209.06;5005185;28;20053;-76
2023/09/12 10:14:40;;;;;;;7.05;1.05;;;;;;;16.37;83.87;101208.19;5010819;28;20046;-77
2023/09/12 10:17:11;;;;;;;3.50;0.75;;;;;;;16.38;84.30;101212.53;5006632;28;20054;-76
2023/09/12 10:19:56;;;;;;;1.27;0.63;;;;;;;16.37;84.35;101211.66;5014054;28;20478;-77
2023/09/12 10:22:33;;;;;;;3.10;1.00;;;;;;;16.40;84.65;101210.84;5005452;28;20060;-76
2023/09/12 10:25:02;;;;;;;4.20;1.00;;;;;;;16.40;85.34;101206.50;5003580;28;20080;-76
2023/09/12 10:30:15;;;;;;;3.08;0.70;;;;;;;16.43;84.88;101206.53;5008636;28;20840;-78
2023/09/12 10:32:47;;;;;;;6.60;0.80;;;;;;;16.45;85.11;101215.28;5010962;28;20264;-76
2023/09/12 10:35:19;;;;;;;3.77;0.83;;;;;;;16.43;84.93;101206.53;5011656;28;20066;-76
2023/09/12 10:37:50;;;;;;;5.00;1.02;;;;;;;16.45;86.03;101206.56;5007734;28;20283;-76
2023/09/12 10:40:21;;;;;;;2.15;0.70;;;;;;;16.44;86.31;101208.28;5006818;28;20512;-77
2023/09/12 10:42:51;;;;;;;2.85;0.93;;;;;;;16.45;85.97;101207.44;5004972;28;20050;-77
2023/09/12 10:45:22;;;;;;;3.22;0.90;;;;;;;16.45;84.72;101204.81;5006970;28;20046;-78
2023/09/12 10:47:51;;;;;;;2.83;0.73;;;;;;;16.47;84.81;101202.22;5009417;28;20132;-77
2023/09/12 10:50:22;;;;;;;2.55;0.98;;;;;;;16.47;85.18;101204.81;5013541;28;20045;-77
2023/09/12 10:52:50;;;;;;;5.88;0.93;;;;;;;16.47;85.42;101210.94;5007108;28;20152;-76
2023/09/12 10:55:19;;;;;;;2.45;0.80;;;;;;;16.47;85.18;101200.50;5011133;28;20046;-76
2023/09/12 10:58:06;;;;;;;2.65;0.95;;;;;;;16.48;84.32;101199.63;5002796;28;20510;-76
2023/09/12 11:00:37;;;;;;;3.17;0.70;;;;;;;16.41;85.08;101192.56;5005933;28;20061;-76
2023/09/12 11:03:39;;;;;;;3.28;0.93;;;;;;;16.48;84.74;101204.84;5002957;28;20102;-76
2023/09/12 11:06:23;;;;;;;3.50;0.80;;;;;;;16.45;84.28;101199.59;5009706;28;20050;-77
2023/09/12 11:09:19;;;;;;;3.28;0.73;;;;;;;16.42;83.97;101199.53;5007022;28;20050;-77
2023/09/12 11:11:48;;;;;;;2.72;0.85;;;;;;;16.41;84.04;101196.94;5004164;28;20558;-77
2023/09/12 11:14:19;;;;;;;7.50;1.15;;;;;;;16.38;84.96;101197.78;5014297;28;20057;-76
2023/09/12 11:17:20;;;;;;;4.68;1.00;;;;;;;16.36;84.48;101198.63;5007585;28;20827;-77
2023/09/12 11:19:52;;;;;;;2.33;0.88;;;;;;;16.30;83.55;101195.03;5004082;28;20135;-77
2023/09/12 11:22:27;;;;;;;1.85;0.90;;;;;;;16.26;83.65;101200.19;5007620;28;20056;-76
2023/09/12 11:24:59;;;;;;;1.83;0.70;;;;;;;16.22;83.80;101201.91;4991696;28;20058;-77
2023/09/12 11:27:33;;;;;;;0.93;0.75;;;;;;;16.16;84.07;101204.44;5006802;28;20050;-76
2023/09/12 11:30:07;;;;;;;5.18;0.88;;;;;;;16.12;83.90;101206.09;5005970;28;20124;-77
2023/09/12 11:32:40;;;;;;;3.88;0.80;;;;;;;16.00;83.80;101195.50;5005927;28;20535;-76
2023/09/12 11:35:10;;;;;;;1.45;0.95;;;;;;;16.04;84.00;101207.75;5003620;28;20047;-76
2023/09/12 11:37:42;;;;;;;6.25;0.90;;;;;;;15.99;83.60;101209.44;5007479;28;20038;-76
2023/09/12 11:40:25;;;;;;;1.48;0.90;;;;;;;15.95;84.76;101210.22;5006340;28;20700;-78
2023/09/12 11:42:54;;;;;;;4.53;0.80;;;;;;;15.91;84.95;101205.81;5012149;28;20099;-77
2023/09/12 11:45:23;;;;;;;5.72;1.30;;;;;;;15.87;85.55;101204.91;5008260;28;20053;-78
2023/09/12 11:47:52;;;;;;;4.25;0.80;;;;;;;15.85;85.38;101200.50;5009552;28;20853;-79